Time;durP1;ratioP1;P1;durP2;ratioP2;P2;SDS_P1;SDS_P2;PMS_P1;PMS_P2;Temp;Humidity;BMP_temperature;BMP_pressure;BME280_temperature;BME280_humidity;BME280_pressure;Samples;Min_cycle;Max_cycle;Signal;HPM_P1;HPM_P2
2021/06/14 00:06:56;;;;;;;8.38;3.10;;;;;;;14.44;58.84;101149.66;20991091;28;20457;-69
2021/06/14 00:16:58;;;;;;;9.55;3.17;;;;;;;14.17;60.14;101151.03;20989290;28;20048;-69
2021/06/14 00:26:59;;;;;;;7.28;3.78;;;;;;;14.18;60.04;101153.66;20991165;28;20040;-70
2021/06/14 00:37:01;;;;;;;6.65;3.00;;;;;;;13.78;61.54;101153.47;20988938;28;20098;-70
2021/06/14 00:47:04;;;;;;;9.38;3.33;;;;;;;13.44;63.10;101142.63;20987945;28;20478;-70
2021/06/14 00:57:06;;;;;;;6.28;3.30;;;;;;;13.13;64.09;101131.66;20988132;28;20048;-70
2021/06/14 01:07:09;;;;;;;10.85;3.60;;;;;;;13.11;64.47;101131.69;20986995;28;20056;-70
2021/06/14 01:17:18;;;;;;;10.48;3.90;;;;;;;13.19;64.37;101142.13;20962838;28;20041;-70
2021/06/14 01:27:33;;;;;;;7.43;3.83;;;;;;;13.20;64.45;101136.81;20987198;28;20143;-70
2021/06/14 01:37:41;;;;;;;7.38;3.97;;;;;;;13.04;65.13;101132.69;20972973;28;20049;-70
2021/06/14 01:47:45;;;;;;;8.10;4.07;;;;;;;12.68;66.71;101126.16;20986535;28;20407;-70
2021/06/14 01:57:47;;;;;;;9.30;4.40;;;;;;;12.68;67.23;101118.28;21002102;28;20486;-70
2021/06/14 02:07:50;;;;;;;10.77;4.30;;;;;;;12.72;66.74;101104.22;20991782;28;20048;-70
2021/06/14 02:17:56;;;;;;;9.07;4.75;;;;;;;12.64;67.70;101100.81;21000731;28;20037;-70
2021/06/14 02:27:58;;;;;;;10.32;4.60;;;;;;;12.63;67.89;101088.56;20994312;28;20048;-70
2021/06/14 02:38:06;;;;;;;9.63;4.75;;;;;;;12.82;67.18;101090.06;20998446;28;20240;-70
2021/06/14 02:48:09;;;;;;;9.90;4.88;;;;;;;12.83;67.47;101081.28;20996224;28;20057;-70
2021/06/14 02:58:11;;;;;;;8.15;4.40;;;;;;;12.77;67.71;101078.75;20964591;28;20055;-69
2021/06/14 03:08:16;;;;;;;11.85;4.90;;;;;;;12.80;68.44;101065.56;20995862;28;20044;-69
2021/06/14 03:18:22;;;;;;;10.87;4.87;;;;;;;12.72;68.93;101067.41;20995980;28;20044;-70
2021/06/14 03:28:25;;;;;;;10.77;5.28;;;;;;;12.65;68.93;101057.88;20990654;28;20094;-69
2021/06/14 03:38:27;;;;;;;9.35;4.82;;;;;;;12.80;68.55;101062.94;20993734;28;20064;-70
2021/06/14 03:48:29;;;;;;;9.95;4.55;;;;;;;12.75;69.29;101056.88;20989098;28;20129;-70
2021/06/14 03:58:32;;;;;;;8.68;4.55;;;;;;;12.86;69.11;101048.84;20991669;28;20056;-70
2021/06/14 04:08:36;;;;;;;10.75;5.05;;;;;;;12.96;68.97;101053.91;20991664;28;20044;-70
2021/06/14 04:18:38;;;;;;;10.17;4.97;;;;;;;12.98;69.30;101048.63;20990421;28;20052;-70
2021/06/14 04:28:40;;;;;;;8.00;4.28;;;;;;;13.29;68.25;101043.81;20989444;28;20548;-70
2021/06/14 04:38:42;;;;;;;9.88;4.38;;;;;;;15.43;59.53;101039.34;20987979;28;20045;-70
2021/06/14 04:48:44;;;;;;;9.57;4.13;;;;;;;15.96;57.87;101034.44;20991247;28;20469;-70
2021/06/14 04:58:46;;;;;;;7.47;3.63;;;;;;;15.15;60.64;101033.88;20971354;28;20399;-70
2021/06/14 05:08:48;;;;;;;8.13;3.92;;;;;;;14.87;61.19;101034.53;20982890;28;20047;-69
2021/06/14 05:18:50;;;;;;;14.10;4.07;;;;;;;14.95;63.09;101052.81;20986664;28;20548;-70
2021/06/14 05:28:51;;;;;;;11.63;4.20;;;;;;;15.14;62.71;101046.19;20985547;28;20052;-69
2021/06/14 05:38:53;;;;;;;7.22;3.72;;;;;;;15.36;61.54;101037.75;20986039;28;20083;-70
2021/06/14 05:48:55;;;;;;;8.48;3.50;;;;;;;15.71;60.71;101025.44;20977039;28;20041;-69
2021/06/14 05:58:58;;;;;;;5.78;3.28;;;;;;;15.87;59.76;101037.31;20984231;28;20048;-70
2021/06/14 06:08:59;;;;;;;9.68;4.05;;;;;;;16.00;59.51;101036.09;20982384;28;20052;-70
2021/06/14 06:19:01;;;;;;;10.38;4.13;;;;;;;16.40;58.40;101019.94;20982395;28;20049;-71
2021/06/14 06:29:03;;;;;;;10.10;3.30;;;;;;;16.60;58.07;101013.16;20975448;28;20051;-71
2021/06/14 06:39:07;;;;;;;9.27;3.87;;;;;;;16.97;57.31;101012.91;20987212;28;20506;-70
2021/06/14 06:49:09;;;;;;;7.82;3.60;;;;;;;17.25;56.82;100998.75;20994977;28;20040;-70
2021/06/14 06:59:11;;;;;;;6.22;3.20;;;;;;;17.50;56.02;100999.66;20994525;28;20045;-71
2021/06/14 07:09:13;;;;;;;7.22;3.42;;;;;;;17.76;54.93;101003.19;20983929;28;20395;-70
2021/06/14 07:19:15;;;;;;;8.07;3.33;;;;;;;18.19;52.62;100984.78;20995043;28;20045;-70
2021/06/14 07:29:17;;;;;;;5.05;2.90;;;;;;;18.49;53.07;100986.31;20993992;28;20049;-70
2021/06/14 07:39:19;;;;;;;7.00;3.00;;;;;;;19.02;51.12;100981.56;20992569;28;20048;-70
2021/06/14 07:49:21;;;;;;;8.35;3.00;;;;;;;19.29;50.77;100983.97;20991945;28;20048;-70
2021/06/14 07:59:23;;;;;;;5.90;3.03;;;;;;;19.60;50.12;100971.13;20992672;28;20498;-71
2021/06/14 08:09:28;;;;;;;7.40;2.92;;;;;;;19.79;48.83;100965.00;20990579;28;20040;-72
2021/06/14 08:29:40;;;;;;;8.30;3.08;;;;;;;20.64;47.38;100960.13;20989932;28;20504;-73
2021/06/14 08:39:42;;;;;;;11.63;3.35;;;;;;;20.77;47.55;100958.63;20988967;28;20052;-73
2021/06/14 08:49:44;;;;;;;10.43;3.13;;;;;;;21.32;45.36;100949.66;20982623;28;20049;-72
2021/06/14 08:59:46;;;;;;;10.60;3.35;;;;;;;21.55;45.79;100940.47;20986788;28;20047;-73
2021/06/14 09:09:49;;;;;;;7.18;2.80;;;;;;;21.76;44.66;100934.88;20986066;28;20101;-72
2021/06/14 09:19:53;;;;;;;6.05;3.00;;;;;;;22.03;42.82;100915.63;20985604;28;20259;-73
2021/06/14 09:29:54;;;;;;;9.03;3.03;;;;;;;22.49;40.38;100891.75;20976194;28;20040;-72
2021/06/14 09:39:57;;;;;;;6.93;2.70;;;;;;;23.05;39.34;100884.94;20979984;28;20053;-73
2021/06/14 09:50:05;;;;;;;7.05;3.13;;;;;;;23.35;37.92;100878.69;20984424;28;20048;-72
2021/06/14 10:00:15;;;;;;;10.25;2.70;;;;;;;23.38;38.33;100868.66;20984294;28;20388;-74
2021/06/14 10:10:26;;;;;;;7.85;2.72;;;;;;;23.37;37.59;100871.41;20966455;28;20044;-72
2021/06/14 10:20:30;;;;;;;9.43;3.03;;;;;;;23.92;36.87;100881.38;21000088;28;20475;-73
2021/06/14 10:30:32;;;;;;;;;;;;;;;24.53;38.04;100882.78;20998687;28;20461;-74
2021/06/14 10:40:36;;;;;;;9.70;2.65;;;;;;;24.29;37.89;100851.28;20998606;28;19920;-72
2021/06/14 10:50:38;;;;;;;7.00;2.70;;;;;;;24.43;36.04;100828.09;20982560;28;20099;-72
2021/06/14 11:00:40;;;;;;;8.13;2.97;;;;;;;24.81;36.61;100825.50;20995619;28;20044;-71
2021/06/14 11:10:48;;;;;;;6.95;2.90;;;;;;;24.83;36.08;100819.09;20994234;28;20474;-73
2021/06/14 11:20:52;;;;;;;7.72;2.90;;;;;;;24.69;35.12;100813.84;20995535;28;20079;-71
2021/06/14 11:30:54;;;;;;;7.05;2.70;;;;;;;24.76;36.72;100785.66;20994177;28;20505;-71
2021/06/14 11:40:57;;;;;;;6.53;2.65;;;;;;;24.92;35.72;100766.72;20995229;28;20045;-73
2021/06/14 11:51:20;;;;;;;6.60;2.83;;;;;;;24.87;35.25;100752.78;20991633;28;20083;-71
2021/06/14 12:01:24;;;;;;;6.70;2.97;;;;;;;25.19;35.96;100753.22;20985482;28;20059;-72
2021/06/14 12:11:26;;;;;;;10.27;2.77;;;;;;;25.42;34.52;100727.44;20983515;28;20103;-72
2021/06/14 12:21:28;;;;;;;6.45;2.83;;;;;;;25.39;33.17;100718.75;20982788;28;20045;-72
2021/06/14 12:31:30;;;;;;;7.63;2.70;;;;;;;25.59;33.67;100721.72;20989425;28;20078;-72
2021/06/14 12:41:32;;;;;;;5.90;2.15;;;;;;;25.62;35.15;100717.94;20988707;28;20083;-74
2021/06/14 12:51:38;;;;;;;5.72;2.47;;;;;;;25.57;34.91;100710.22;20987164;28;20049;-72
2021/06/14 13:01:40;;;;;;;7.55;2.55;;;;;;;25.82;32.65;100703.97;20987888;28;20045;-73
2021/06/14 13:11:47;;;;;;;4.90;2.30;;;;;;;25.98;31.36;100692.91;20989049;28;20071;-71
2021/06/14 13:21:48;;;;;;;7.22;2.28;;;;;;;26.18;31.26;100685.19;20987952;28;20048;-72
2021/06/14 13:32:03;;;;;;;5.95;2.20;;;;;;;26.38;30.44;100672.91;20986435;28;20052;-74
2021/06/14 13:42:08;;;;;;;6.43;2.40;;;;;;;26.49;30.65;100676.47;20983424;28;20045;-72
2021/06/14 13:52:15;;;;;;;8.13;2.42;;;;;;;26.39;30.52;100663.88;20997189;28;20113;-69
2021/06/14 14:02:17;;;;;;;5.53;2.20;;;;;;;26.85;30.23;100663.84;21000932;28;20052;-70
2021/06/14 14:12:19;;;;;;;7.55;2.03;;;;;;;26.70;28.45;100647.09;20998521;28;20049;-71
2021/06/14 14:22:20;;;;;;;8.65;2.15;;;;;;;26.80;28.28;100640.00;21000042;28;20083;-71
2021/06/14 14:32:22;;;;;;;7.20;2.28;;;;;;;27.03;28.54;100615.81;20994364;28;20048;-73
2021/06/14 14:42:25;;;;;;;4.88;1.90;;;;;;;27.00;27.27;100613.38;20998953;28;20044;-74
2021/06/14 14:52:28;;;;;;;5.82;1.92;;;;;;;26.91;27.90;100611.44;20997738;28;20044;-72
2021/06/14 15:02:31;;;;;;;5.20;2.00;;;;;;;27.39;28.07;100608.44;20996506;28;20414;-71
2021/06/14 15:12:33;;;;;;;5.55;2.10;;;;;;;27.43;26.79;100586.53;20996337;28;20044;-73
2021/06/14 15:22:35;;;;;;;5.03;2.15;;;;;;;27.66;26.93;100589.13;20995692;28;20052;-72
2021/06/14 15:32:39;;;;;;;4.63;1.97;;;;;;;27.78;26.17;100559.38;20995841;28;20044;-72
2021/06/14 15:42:44;;;;;;;4.65;2.00;;;;;;;27.44;27.02;100547.03;20992064;28;20090;-72
2021/06/14 15:52:46;;;;;;;5.43;2.55;;;;;;;27.87;28.94;100539.75;20978794;28;20052;-72
2021/06/14 16:02:49;;;;;;;6.90;2.28;;;;;;;27.69;27.77;100540.44;20991866;28;20044;-73
2021/06/14 16:12:51;;;;;;;5.78;1.95;;;;;;;27.71;27.59;100533.97;20982843;28;20102;-72
2021/06/14 16:22:52;;;;;;;5.82;2.33;;;;;;;27.76;27.18;100528.22;20990243;28;20084;-73
2021/06/14 16:32:54;;;;;;;5.53;1.90;;;;;;;27.83;27.86;100535.59;20989197;28;20110;-73
2021/06/14 16:42:57;;;;;;;5.18;2.20;;;;;;;27.65;27.37;100528.25;20989396;28;20468;-72
2021/06/14 16:52:59;;;;;;;4.33;2.17;;;;;;;27.83;26.99;100522.16;20982667;28;20071;-72
2021/06/14 17:03:02;;;;;;;6.50;2.10;;;;;;;27.80;27.25;100530.50;20986833;28;20262;-72
2021/06/14 17:13:05;;;;;;;6.63;2.30;;;;;;;27.95;28.15;100522.09;20980992;28;20048;-71
2021/06/14 17:23:07;;;;;;;4.38;1.80;;;;;;;27.65;27.25;100515.66;20980400;28;20071;-72
2021/06/14 17:33:11;;;;;;;4.65;1.95;;;;;;;27.65;27.02;100515.66;20985475;28;20119;-72
2021/06/14 17:43:13;;;;;;;3.80;1.52;;;;;;;27.54;27.38;100513.00;20985704;28;20446;-71
2021/06/14 17:53:15;;;;;;;5.75;1.90;;;;;;;27.49;28.29;100505.31;20980573;28;20051;-71
2021/06/14 18:03:17;;;;;;;5.47;2.15;;;;;;;27.38;28.38;100509.91;20973679;28;20045;-71
2021/06/14 18:13:19;;;;;;;4.03;1.73;;;;;;;27.22;28.30;100497.78;20986043;28;20406;-73
2021/06/14 18:23:20;;;;;;;4.20;1.70;;;;;;;26.97;29.80;100488.16;20982398;28;20114;-72
2021/06/14 18:33:26;;;;;;;6.38;2.03;;;;;;;26.73;33.70;100496.41;20986611;28;20468;-71
2021/06/14 18:43:29;;;;;;;4.78;1.80;;;;;;;26.24;35.28;100486.91;20998167;28;20055;-69
2021/06/14 18:53:31;;;;;;;5.37;1.93;;;;;;;25.21;37.76;100494.03;20994378;28;20041;-70
2021/06/14 19:03:32;;;;;;;5.03;1.77;;;;;;;24.62;39.38;100509.09;20993466;28;20074;-72
2021/06/14 19:13:34;;;;;;;7.32;2.10;;;;;;;23.84;41.85;100517.31;20989353;28;20040;-71
2021/06/14 19:23:36;;;;;;;7.43;2.10;;;;;;;23.41;43.75;100522.88;20992136;28;20071;-71
2021/06/14 19:33:40;;;;;;;10.88;2.80;;;;;;;22.82;46.51;100533.84;20975615;28;20129;-70
2021/06/14 19:43:43;;;;;;;13.97;2.70;;;;;;;22.35;46.85;100547.53;20982915;28;20134;-70
2021/06/14 19:53:45;;;;;;;5.35;1.98;;;;;;;21.98;47.53;100555.06;20989920;28;20086;-70
2021/06/14 20:03:47;;;;;;;5.60;2.17;;;;;;;21.57;48.01;100574.41;20986552;28;20118;-70
2021/06/14 20:13:48;;;;;;;8.65;2.30;;;;;;;21.27;48.56;100575.22;20990951;28;20497;-72
2021/06/14 20:23:56;;;;;;;8.68;2.38;;;;;;;20.90;50.44;100580.91;20984384;28;20040;-72
2021/06/14 20:33:57;;;;;;;4.43;2.50;;;;;;;20.22;52.56;100595.16;20969793;28;20079;-73
2021/06/14 20:43:59;;;;;;;5.55;2.60;;;;;;;20.18;51.43;100593.59;20971109;28;20185;-73
2021/06/14 20:54:01;;;;;;;7.70;2.90;;;;;;;20.05;52.49;100600.50;20984653;28;20044;-72
2021/06/14 21:04:07;;;;;;;6.72;2.80;;;;;;;19.88;53.77;100600.47;20983107;28;20402;-73
2021/06/14 21:14:09;;;;;;;6.25;2.70;;;;;;;19.83;53.70;100597.19;20986333;28;20044;-72
2021/06/14 21:24:10;;;;;;;6.40;2.70;;;;;;;19.58;54.56;100594.91;20985466;28;20118;-73
2021/06/14 21:34:12;;;;;;;5.85;2.88;;;;;;;19.36;55.40;100600.44;20983573;28;20075;-72
2021/06/14 21:44:14;;;;;;;6.90;3.45;;;;;;;18.94;57.40;100599.75;20981715;28;20048;-72
2021/06/14 21:54:15;;;;;;;6.45;3.05;;;;;;;18.84;58.23;100594.94;20984138;28;20099;-72
2021/06/14 22:04:17;;;;;;;10.07;3.30;;;;;;;18.70;58.35;100599.09;20980467;28;20056;-72
2021/06/14 22:14:19;;;;;;;5.78;3.00;;;;;;;18.41;59.97;100602.19;20991992;28;20049;-72
2021/06/14 22:24:21;;;;;;;8.90;3.70;;;;;;;18.36;60.64;100591.78;20998941;28;20062;-72
2021/06/14 22:34:23;;;;;;;7.28;4.00;;;;;;;18.31;60.38;100591.13;20997435;28;20060;-73
2021/06/14 22:44:25;;;;;;;6.85;3.85;;;;;;;17.93;62.20;100608.72;20997103;28;20052;-73
2021/06/14 22:54:27;;;;;;;6.75;3.67;;;;;;;17.93;62.28;100609.56;20996591;28;20044;-74
2021/06/14 23:04:28;;;;;;;7.60;3.70;;;;;;;17.90;61.65;100608.84;20995007;28;20101;-73
2021/06/14 23:14:30;;;;;;;13.27;4.05;;;;;;;17.66;62.32;100594.81;20987176;28;20052;-72
2021/06/14 23:24:32;;;;;;;8.10;3.97;;;;;;;17.41;63.61;100600.25;20996728;28;20528;-73
2021/06/14 23:34:34;;;;;;;8.65;4.05;;;;;;;17.12;64.15;100606.72;20993271;28;20048;-73
2021/06/14 23:44:36;;;;;;;7.47;3.78;;;;;;;16.93;64.59;100601.28;20975499;28;20109;-72
2021/06/14 23:54:38;;;;;;;7.90;4.15;;;;;;;16.85;65.18;100590.13;20991921;28;20074;-72
